sensor_id;sensor_type;location;lat;lon;timestamp;pressure;altitude;pressure_sealevel;temperature;humidity
10706;BME280;5404;42.656;23.336;2022-10-26T00:00:48;95242.50;;;16.11;100.00
10706;BME280;5404;42.656;23.336;2022-10-26T00:03:14;95256.28;;;16.09;100.00
10706;BME280;5404;42.656;23.336;2022-10-26T00:05:40;95258.66;;;16.11;100.00
10706;BME280;5404;42.656;23.336;2022-10-26T00:08:07;95265.44;;;16.08;100.00
10706;BME280;5404;42.656;23.336;2022-10-26T00:10:34;95266.56;;;16.07;100.00
10706;BME280;5404;42.656;23.336;2022-10-26T00:13:01;95251.34;;;15.94;100.00
10706;BME280;5404;42.656;23.336;2022-10-26T00:15:27;95261.19;;;15.99;100.00
10706;BME280;5404;42.656;23.336;2022-10-26T00:17:53;95259.56;;;15.89;100.00
10706;BME280;5404;42.656;23.336;2022-10-26T00:20:19;95252.78;;;15.83;100.00
10706;BME280;5404;42.656;23.336;2022-10-26T00:22:46;95251.34;;;15.86;100.00
10706;BME280;5404;42.656;23.336;2022-10-26T00:25:11;95263.38;;;15.88;100.00
10706;BME280;5404;42.656;23.336;2022-10-26T00:27:37;95261.03;;;15.95;100.00
10706;BME280;5404;42.656;23.336;2022-10-26T00:30:05;95274.28;;;16.00;100.00
10706;BME280;5404;42.656;23.336;2022-10-26T00:32:33;95277.47;;;16.02;100.00
10706;BME280;5404;42.656;23.336;2022-10-26T00:35:00;95266.41;;;16.04;100.00
10706;BME280;5404;42.656;23.336;2022-10-26T00:37:25;95258.00;;;15.97;100.00
10706;BME280;5404;42.656;23.336;2022-10-26T00:39:51;95268.44;;;16.07;100.00
10706;BME280;5404;42.656;23.336;2022-10-26T00:42:21;95253.28;;;15.94;100.00
10706;BME280;5404;42.656;23.336;2022-10-26T00:47:27;95227.50;;;15.84;100.00
10706;BME280;5404;42.656;23.336;2022-10-26T00:49:55;95240.59;;;15.86;100.00
10706;BME280;5404;42.656;23.336;2022-10-26T00:52:22;95242.53;;;15.94;100.00
10706;BME280;5404;42.656;23.336;2022-10-26T00:54:48;95260.06;;;16.08;100.00
10706;BME280;5404;42.656;23.336;2022-10-26T00:57:15;95224.31;;;15.82;100.00
10706;BME280;5404;42.656;23.336;2022-10-26T00:59:42;95258.97;;;16.01;100.00
10706;BME280;5404;42.656;23.336;2022-10-26T01:02:09;95247.91;;;15.94;100.00
10706;BME280;5404;42.656;23.336;2022-10-26T01:04:35;95254.69;;;16.00;100.00
10706;BME280;5404;42.656;23.336;2022-10-26T01:07:03;95252.31;;;15.98;100.00
10706;BME280;5404;42.656;23.336;2022-10-26T01:09:31;95253.44;;;16.06;100.00
10706;BME280;5404;42.656;23.336;2022-10-26T01:11:57;95251.50;;;15.98;100.00
10706;BME280;5404;42.656;23.336;2022-10-26T01:14:25;95251.22;;;15.99;100.00
10706;BME280;5404;42.656;23.336;2022-10-26T01:20:12;95251.69;;;15.93;100.00
10706;BME280;5404;42.656;23.336;2022-10-26T01:23:11;95250.44;;;15.90;100.00
10706;BME280;5404;42.656;23.336;2022-10-26T01:28:59;95262.09;;;15.77;100.00
10706;BME280;5404;42.656;23.336;2022-10-26T01:31:42;95255.63;;;15.70;100.00
10706;BME280;5404;42.656;23.336;2022-10-26T01:34:20;95257.53;;;15.61;100.00
10706;BME280;5404;42.656;23.336;2022-10-26T01:37:08;95252.59;;;15.46;100.00
10706;BME280;5404;42.656;23.336;2022-10-26T01:39:48;95250.25;;;15.44;100.00
10706;BME280;5404;42.656;23.336;2022-10-26T01:42:20;95254.13;;;15.38;100.00
10706;BME280;5404;42.656;23.336;2022-10-26T01:45:02;95244.97;;;15.31;100.00
10706;BME280;5404;42.656;23.336;2022-10-26T01:47:29;95241.16;;;15.32;100.00
10706;BME280;5404;42.656;23.336;2022-10-26T01:49:57;95245.09;;;15.34;100.00
10706;BME280;5404;42.656;23.336;2022-10-26T01:52:25;95236.91;;;15.31;100.00
10706;BME280;5404;42.656;23.336;2022-10-26T01:54:50;95245.09;;;15.34;100.00
10706;BME280;5404;42.656;23.336;2022-10-26T01:57:18;95238.63;;;15.27;100.00
10706;BME280;5404;42.656;23.336;2022-10-26T02:00:08;95234.97;;;15.14;100.00
10706;BME280;5404;42.656;23.336;2022-10-26T02:13:32;95222.28;;;14.89;100.00
10706;BME280;5404;42.656;23.336;2022-10-26T02:16:24;95253.59;;;15.10;100.00
10706;BME280;5404;42.656;23.336;2022-10-26T02:19:04;95261.81;;;15.14;100.00
10706;BME280;5404;42.656;23.336;2022-10-26T02:21:44;95266.84;;;15.15;100.00
10706;BME280;5404;42.656;23.336;2022-10-26T02:24:12;95263.25;;;15.20;100.00
10706;BME280;5404;42.656;23.336;2022-10-26T02:26:40;95266.13;;;15.24;100.00
10706;BME280;5404;42.656;23.336;2022-10-26T02:29:13;95252.66;;;15.15;100.00
10706;BME280;5404;42.656;23.336;2022-10-26T02:31:39;95258.50;;;15.26;100.00
10706;BME280;5404;42.656;23.336;2022-10-26T02:34:09;95262.47;;;15.28;100.00
10706;BME280;5404;42.656;23.336;2022-10-26T02:36:41;95248.09;;;15.24;100.00
10706;BME280;5404;42.656;23.336;2022-10-26T02:39:09;95272.28;;;15.33;100.00
10706;BME280;5404;42.656;23.336;2022-10-26T02:41:36;95260.59;;;15.29;100.00
10706;BME280;5404;42.656;23.336;2022-10-26T02:44:24;95262.00;;;15.26;100.00
10706;BME280;5404;42.656;23.336;2022-10-26T02:46:51;95252.94;;;15.13;100.00
10706;BME280;5404;42.656;23.336;2022-10-26T02:49:18;95257.69;;;15.08;100.00
10706;BME280;5404;42.656;23.336;2022-10-26T02:52:10;95271.75;;;15.13;100.00
10706;BME280;5404;42.656;23.336;2022-10-26T02:54:51;95275.38;;;15.09;100.00
10706;BME280;5404;42.656;23.336;2022-10-26T02:57:25;95270.91;;;14.96;100.00
10706;BME280;5404;42.656;23.336;2022-10-26T02:59:54;95273.66;;;14.74;100.00
10706;BME280;5404;42.656;23.336;2022-10-26T03:02:21;95283.84;;;14.63;100.00
10706;BME280;5404;42.656;23.336;2022-10-26T03:04:49;95303.56;;;14.37;100.00
10706;BME280;5404;42.656;23.336;2022-10-26T03:07:24;95319.09;;;14.26;100.00
10706;BME280;5404;42.656;23.336;2022-10-26T03:09:51;95294.00;;;14.08;100.00
10706;BME280;5404;42.656;23.336;2022-10-26T03:12:17;95324.16;;;14.14;100.00
10706;BME280;5404;42.656;23.336;2022-10-26T03:14:43;95324.28;;;14.09;100.00
10706;BME280;5404;42.656;23.336;2022-10-26T03:17:09;95336.13;;;14.08;100.00
10706;BME280;5404;42.656;23.336;2022-10-26T03:19:35;95336.34;;;13.98;100.00
10706;BME280;5404;42.656;23.336;2022-10-26T03:22:02;95336.34;;;13.84;100.00
10706;BME280;5404;42.656;23.336;2022-10-26T03:24:27;95346.09;;;13.80;100.00
10706;BME280;5404;42.656;23.336;2022-10-26T03:26:55;95354.16;;;13.80;100.00
10706;BME280;5404;42.656;23.336;2022-10-26T03:29:21;95358.31;;;13.73;100.00
10706;BME280;5404;42.656;23.336;2022-10-26T03:31:47;95352.88;;;13.64;100.00
10706;BME280;5404;42.656;23.336;2022-10-26T03:34:13;95352.88;;;13.51;100.00
10706;BME280;5404;42.656;23.336;2022-10-26T03:36:38;95370.34;;;13.48;100.00
10706;BME280;5404;42.656;23.336;2022-10-26T03:39:04;95350.22;;;13.24;100.00
10706;BME280;5404;42.656;23.336;2022-10-26T03:41:29;95358.75;;;13.26;100.00
10706;BME280;5404;42.656;23.336;2022-10-26T03:43:54;95359.06;;;13.24;100.00
10706;BME280;5404;42.656;23.336;2022-10-26T03:46:20;95369.84;;;13.33;100.00
10706;BME280;5404;42.656;23.336;2022-10-26T03:48:45;95365.38;;;13.28;100.00
10706;BME280;5404;42.656;23.336;2022-10-26T03:51:11;95366.59;;;13.36;100.00
10706;BME280;5404;42.656;23.336;2022-10-26T03:53:36;95373.09;;;13.43;100.00
10706;BME280;5404;42.656;23.336;2022-10-26T03:56:02;95367.84;;;13.38;100.00
10706;BME280;5404;42.656;23.336;2022-10-26T03:58:27;95379.56;;;13.42;100.00
10706;BME280;5404;42.656;23.336;2022-10-26T04:00:53;95355.88;;;13.36;100.00
10706;BME280;5404;42.656;23.336;2022-10-26T04:03:18;95367.84;;;13.38;100.00
10706;BME280;5404;42.656;23.336;2022-10-26T04:05:44;95383.03;;;13.43;100.00
10706;BME280;5404;42.656;23.336;2022-10-26T04:08:11;95371.34;;;13.39;100.00
10706;BME280;5404;42.656;23.336;2022-10-26T04:10:37;95373.22;;;13.38;100.00
10706;BME280;5404;42.656;23.336;2022-10-26T04:13:02;95382.84;;;13.53;100.00
10706;BME280;5404;42.656;23.336;2022-10-26T04:15:28;95389.97;;;13.57;100.00
10706;BME280;5404;42.656;23.336;2022-10-26T04:17:58;95378.84;;;13.50;100.00
10706;BME280;5404;42.656;23.336;2022-10-26T04:20:26;95363.00;;;13.40;100.00
10706;BME280;5404;42.656;23.336;2022-10-26T04:23:02;95369.16;;;13.41;100.00
10706;BME280;5404;42.656;23.336;2022-10-26T04:25:29;95382.03;;;13.52;100.00
10706;BME280;5404;42.656;23.336;2022-10-26T04:27:54;95380.16;;;13.53;100.00
10706;BME280;5404;42.656;23.336;2022-10-26T04:30:20;95380.47;;;13.51;100.00
10706;BME280;5404;42.656;23.336;2022-10-26T04:32:46;95376.47;;;13.49;100.00
10706;BME280;5404;42.656;23.336;2022-10-26T04:35:11;95355.88;;;13.36;100.00
10706;BME280;5404;42.656;23.336;2022-10-26T04:37:37;95382.03;;;13.52;100.00
10706;BME280;5404;42.656;23.336;2022-10-26T04:40:04;95379.25;;;13.57;100.00
10706;BME280;5404;42.656;23.336;2022-10-26T04:42:30;95376.47;;;13.49;100.00
10706;BME280;5404;42.656;23.336;2022-10-26T04:44:59;95386.41;;;13.62;100.00
10706;BME280;5404;42.656;23.336;2022-10-26T04:47:24;95390.66;;;13.63;100.00
10706;BME280;5404;42.656;23.336;2022-10-26T04:49:50;95371.94;;;13.49;100.00
10706;BME280;5404;42.656;23.336;2022-10-26T04:52:16;95394.72;;;13.60;100.00
10706;BME280;5404;42.656;23.336;2022-10-26T04:54:43;95392.72;;;13.66;100.00
10706;BME280;5404;42.656;23.336;2022-10-26T04:57:09;95407.44;;;13.68;100.00
10706;BME280;5404;42.656;23.336;2022-10-26T04:59:34;95398.88;;;13.66;100.00
10706;BME280;5404;42.656;23.336;2022-10-26T05:02:00;95412.19;;;13.71;100.00
10706;BME280;5404;42.656;23.336;2022-10-26T05:04:25;95397.97;;;13.71;100.00
10706;BME280;5404;42.656;23.336;2022-10-26T05:06:52;95404.22;;;13.80;100.00
10706;BME280;5404;42.656;23.336;2022-10-26T05:09:19;95413.25;;;13.84;100.00
10706;BME280;5404;42.656;23.336;2022-10-26T05:11:45;95406.38;;;13.91;100.00
10706;BME280;5404;42.656;23.336;2022-10-26T05:14:10;95394.03;;;13.82;100.00
10706;BME280;5404;42.656;23.336;2022-10-26T05:16:37;95404.81;;;13.90;100.00
10706;BME280;5404;42.656;23.336;2022-10-26T05:19:03;95394.91;;;13.91;100.00
10706;BME280;5404;42.656;23.336;2022-10-26T05:21:29;95406.41;;;14.05;100.00
10706;BME280;5404;42.656;23.336;2022-10-26T05:23:54;95404.19;;;14.07;100.00
10706;BME280;5404;42.656;23.336;2022-10-26T05:26:23;95406.28;;;14.10;100.00
10706;BME280;5404;42.656;23.336;2022-10-26T05:28:51;95410.72;;;14.15;100.00
10706;BME280;5404;42.656;23.336;2022-10-26T05:31:19;95419.75;;;14.19;100.00
10706;BME280;5404;42.656;23.336;2022-10-26T05:33:50;95421.84;;;14.22;100.00
10706;BME280;5404;42.656;23.336;2022-10-26T05:36:19;95416.47;;;14.22;100.00
10706;BME280;5404;42.656;23.336;2022-10-26T05:38:45;95421.22;;;14.25;100.00
10706;BME280;5404;42.656;23.336;2022-10-26T05:41:10;95428.88;;;14.31;100.00
10706;BME280;5404;42.656;23.336;2022-10-26T05:43:36;95431.44;;;14.36;100.00
10706;BME280;5404;42.656;23.336;2022-10-26T05:46:06;95432.25;;;14.37;100.00
10706;BME280;5404;42.656;23.336;2022-10-26T05:48:31;95425.19;;;14.41;100.00
10706;BME280;5404;42.656;23.336;2022-10-26T05:51:00;95428.75;;;14.36;100.00
10706;BME280;5404;42.656;23.336;2022-10-26T05:53:26;95429.31;;;14.47;100.00
10706;BME280;5404;42.656;23.336;2022-10-26T05:55:53;95438.16;;;14.47;100.00
10706;BME280;5404;42.656;23.336;2022-10-26T05:58:20;95444.09;;;14.58;100.00
10706;BME280;5404;42.656;23.336;2022-10-26T06:01:19;95435.13;;;14.62;100.00
10706;BME280;5404;42.656;23.336;2022-10-26T06:06:17;95442.75;;;14.69;100.00
10706;BME280;5404;42.656;23.336;2022-10-26T06:08:43;95449.91;;;14.73;100.00
10706;BME280;5404;42.656;23.336;2022-10-26T06:11:11;95447.59;;;14.80;100.00
10706;BME280;5404;42.656;23.336;2022-10-26T06:13:37;95452.53;;;14.87;100.00
10706;BME280;5404;42.656;23.336;2022-10-26T06:24:30;95450.31;;;15.11;100.00
10706;BME280;5404;42.656;23.336;2022-10-26T06:32:03;95446.41;;;15.17;100.00
10706;BME280;5404;42.656;23.336;2022-10-26T06:34:33;95453.59;;;15.30;100.00
10706;BME280;5404;42.656;23.336;2022-10-26T06:37:00;95444.44;;;15.31;100.00
10706;BME280;5404;42.656;23.336;2022-10-26T06:39:28;95449.72;;;15.45;100.00
10706;BME280;5404;42.656;23.336;2022-10-26T06:41:59;95452.28;;;15.50;100.00
10706;BME280;5404;42.656;23.336;2022-10-26T06:44:26;95442.84;;;15.52;100.00
10706;BME280;5404;42.656;23.336;2022-10-26T06:47:06;95449.78;;;15.53;100.00
10706;BME280;5404;42.656;23.336;2022-10-26T06:49:36;95411.19;;;15.41;100.00
10706;BME280;5404;42.656;23.336;2022-10-26T06:52:33;95444.25;;;15.58;100.00
10706;BME280;5404;42.656;23.336;2022-10-26T06:55:02;95451.19;;;15.51;100.00
10706;BME280;5404;42.656;23.336;2022-10-26T06:57:36;95448.88;;;15.58;100.00
10706;BME280;5404;42.656;23.336;2022-10-26T07:02:32;95448.28;;;15.69;100.00
10706;BME280;5404;42.656;23.336;2022-10-26T07:04:58;95442.13;;;15.77;100.00
10706;BME280;5404;42.656;23.336;2022-10-26T07:07:25;95446.44;;;15.87;100.00
10706;BME280;5404;42.656;23.336;2022-10-26T07:09:51;95449.94;;;15.87;100.00
10706;BME280;5404;42.656;23.336;2022-10-26T07:12:17;95425.75;;;15.87;100.00
10706;BME280;5404;42.656;23.336;2022-10-26T07:14:43;95441.88;;;15.87;100.00
10706;BME280;5404;42.656;23.336;2022-10-26T07:17:09;95436.00;;;15.85;100.00
10706;BME280;5404;42.656;23.336;2022-10-26T07:19:35;95459.31;;;16.07;100.00
10706;BME280;5404;42.656;23.336;2022-10-26T07:22:01;95447.75;;;16.06;100.00
10706;BME280;5404;42.656;23.336;2022-10-26T07:24:27;95431.47;;;16.11;100.00
10706;BME280;5404;42.656;23.336;2022-10-26T07:26:55;95445.44;;;16.30;100.00
10706;BME280;5404;42.656;23.336;2022-10-26T07:29:25;95429.59;;;16.20;100.00
10706;BME280;5404;42.656;23.336;2022-10-26T07:31:52;95438.00;;;16.36;100.00
10706;BME280;5404;42.656;23.336;2022-10-26T07:34:18;95410.78;;;16.20;100.00
10706;BME280;5404;42.656;23.336;2022-10-26T07:36:45;95420.94;;;16.32;100.00
10706;BME280;5404;42.656;23.336;2022-10-26T07:39:11;95431.75;;;16.58;100.00
10706;BME280;5404;42.656;23.336;2022-10-26T07:41:37;95419.84;;;16.59;100.00
10706;BME280;5404;42.656;23.336;2022-10-26T07:44:02;95421.59;;;16.63;100.00
10706;BME280;5404;42.656;23.336;2022-10-26T07:46:28;95430.44;;;16.81;100.00
10706;BME280;5404;42.656;23.336;2022-10-26T07:48:54;95429.03;;;16.75;100.00
10706;BME280;5404;42.656;23.336;2022-10-26T07:51:19;95427.59;;;16.86;100.00
10706;BME280;5404;42.656;23.336;2022-10-26T07:53:45;95412.56;;;16.85;100.00
10706;BME280;5404;42.656;23.336;2022-10-26T07:56:13;95419.81;;;17.01;100.00
10706;BME280;5404;42.656;23.336;2022-10-26T07:58:40;95418.41;;;17.04;100.00
10706;BME280;5404;42.656;23.336;2022-10-26T08:01:13;95403.94;;;17.17;100.00
10706;BME280;5404;42.656;23.336;2022-10-26T08:03:40;95413.72;;;17.47;100.00
10706;BME280;5404;42.656;23.336;2022-10-26T08:06:07;95400.84;;;17.53;100.00
10706;BME280;5404;42.656;23.336;2022-10-26T08:08:34;95393.75;;;17.48;100.00
10706;BME280;5404;42.656;23.336;2022-10-26T08:10:59;95408.22;;;17.73;100.00
10706;BME280;5404;42.656;23.336;2022-10-26T08:13:25;95399.88;;;17.95;100.00
10706;BME280;5404;42.656;23.336;2022-10-26T08:15:56;95406.16;;;18.07;100.00
10706;BME280;5404;42.656;23.336;2022-10-26T08:18:22;95399.97;;;18.27;100.00
10706;BME280;5404;42.656;23.336;2022-10-26T08:20:48;95393.28;;;18.54;100.00
10706;BME280;5404;42.656;23.336;2022-10-26T08:23:14;95393.56;;;18.61;100.00
10706;BME280;5404;42.656;23.336;2022-10-26T08:25:40;95392.50;;;18.74;100.00
10706;BME280;5404;42.656;23.336;2022-10-26T08:28:07;95396.44;;;19.09;100.00
10706;BME280;5404;42.656;23.336;2022-10-26T08:30:34;95379.28;;;20.58;100.00
10706;BME280;5404;42.656;23.336;2022-10-26T08:33:02;95371.50;;;23.29;100.00
10706;BME280;5404;42.656;23.336;2022-10-26T08:35:28;95359.25;;;25.65;100.00
10706;BME280;5404;42.656;23.336;2022-10-26T08:37:54;95365.34;;;27.14;78.24
10706;BME280;5404;42.656;23.336;2022-10-26T08:40:24;95367.47;;;28.26;67.86
10706;BME280;5404;42.656;23.336;2022-10-26T08:42:57;95362.81;;;30.50;52.71
10706;BME280;5404;42.656;23.336;2022-10-26T08:45:32;95368.34;;;30.47;48.70
10706;BME280;5404;42.656;23.336;2022-10-26T08:48:14;95358.16;;;30.84;46.43
10706;BME280;5404;42.656;23.336;2022-10-26T08:50:53;95366.47;;;32.71;40.98
10706;BME280;5404;42.656;23.336;2022-10-26T08:53:32;95379.00;;;32.29;39.02
10706;BME280;5404;42.656;23.336;2022-10-26T08:56:05;95384.81;;;32.35;38.46
10706;BME280;5404;42.656;23.336;2022-10-26T08:58:39;95381.66;;;31.56;39.90
10706;BME280;5404;42.656;23.336;2022-10-26T09:01:08;95396.13;;;32.17;39.81
10706;BME280;5404;42.656;23.336;2022-10-26T09:03:34;95375.00;;;34.42;34.54
10706;BME280;5404;42.656;23.336;2022-10-26T09:06:15;95378.66;;;33.87;34.38
10706;BME280;5404;42.656;23.336;2022-10-26T09:24:59;95360.66;;;35.33;31.10
10706;BME280;5404;42.656;23.336;2022-10-26T09:27:29;95369.72;;;35.50;30.36
10706;BME280;5404;42.656;23.336;2022-10-26T09:29:57;95371.25;;;34.00;31.22
10706;BME280;5404;42.656;23.336;2022-10-26T09:32:39;95369.66;;;34.19;31.77
10706;BME280;5404;42.656;23.336;2022-10-26T09:35:16;95372.63;;;34.73;30.55
10706;BME280;5404;42.656;23.336;2022-10-26T09:37:47;95374.13;;;34.45;30.13
10706;BME280;5404;42.656;23.336;2022-10-26T09:40:34;95372.06;;;35.22;29.36
10706;BME280;5404;42.656;23.336;2022-10-26T09:43:09;95376.78;;;36.04;28.39
10706;BME280;5404;42.656;23.336;2022-10-26T09:45:43;95368.66;;;36.35;27.85
10706;BME280;5404;42.656;23.336;2022-10-26T09:50:46;95345.44;;;34.84;29.29
10706;BME280;5404;42.656;23.336;2022-10-26T09:53:14;95344.09;;;34.76;28.94
10706;BME280;5404;42.656;23.336;2022-10-26T09:55:44;95350.47;;;32.16;30.30
10706;BME280;5404;42.656;23.336;2022-10-26T09:58:22;95358.53;;;29.98;35.51
10706;BME280;5404;42.656;23.336;2022-10-26T10:00:50;95354.38;;;30.68;35.34
10706;BME280;5404;42.656;23.336;2022-10-26T10:03:26;95352.13;;;30.59;33.56
10706;BME280;5404;42.656;23.336;2022-10-26T10:05:53;95353.38;;;31.22;32.12
10706;BME280;5404;42.656;23.336;2022-10-26T10:08:23;95342.56;;;31.05;31.13
10706;BME280;5404;42.656;23.336;2022-10-26T10:11:06;95340.22;;;31.63;31.31
10706;BME280;5404;42.656;23.336;2022-10-26T10:13:35;95341.28;;;32.23;30.43
10706;BME280;5404;42.656;23.336;2022-10-26T10:16:10;95325.00;;;33.14;29.96
10706;BME280;5404;42.656;23.336;2022-10-26T10:18:38;95329.34;;;34.18;28.58
10706;BME280;5404;42.656;23.336;2022-10-26T10:21:04;95333.22;;;34.53;27.96
10706;BME280;5404;42.656;23.336;2022-10-26T10:23:36;95330.25;;;34.76;27.92
10706;BME280;5404;42.656;23.336;2022-10-26T10:26:05;95309.06;;;33.01;29.36
10706;BME280;5404;42.656;23.336;2022-10-26T10:28:32;95331.44;;;34.14;28.54
10706;BME280;5404;42.656;23.336;2022-10-26T10:31:09;95318.06;;;33.61;28.78
10706;BME280;5404;42.656;23.336;2022-10-26T10:33:43;95328.03;;;33.74;28.98
10706;BME280;5404;42.656;23.336;2022-10-26T10:36:17;95323.09;;;31.52;31.22
10706;BME280;5404;42.656;23.336;2022-10-26T10:38:45;95312.22;;;33.91;29.28
10706;BME280;5404;42.656;23.336;2022-10-26T10:44:04;95305.59;;;34.04;28.56
10706;BME280;5404;42.656;23.336;2022-10-26T10:46:33;95308.31;;;31.39;31.95
10706;BME280;5404;42.656;23.336;2022-10-26T10:49:24;95308.03;;;30.29;33.72
10706;BME280;5404;42.656;23.336;2022-10-26T10:51:52;95293.75;;;29.49;35.92
10706;BME280;5404;42.656;23.336;2022-10-26T10:54:34;95311.72;;;30.09;35.22
10706;BME280;5404;42.656;23.336;2022-10-26T10:57:20;95296.25;;;29.23;36.15
10706;BME280;5404;42.656;23.336;2022-10-26T11:00:05;95301.47;;;29.65;36.65
10706;BME280;5404;42.656;23.336;2022-10-26T11:03:03;95298.03;;;30.02;36.33
10706;BME280;5404;42.656;23.336;2022-10-26T11:13:31;95292.56;;;32.36;33.31
10706;BME280;5404;42.656;23.336;2022-10-26T11:16:04;95258.97;;;31.75;33.02
10706;BME280;5404;42.656;23.336;2022-10-26T11:21:43;95284.50;;;30.96;34.77
10706;BME280;5404;42.656;23.336;2022-10-26T11:24:12;95292.75;;;30.96;34.65
10706;BME280;5404;42.656;23.336;2022-10-26T11:31:58;95280.84;;;29.39;37.58
10706;BME280;5404;42.656;23.336;2022-10-26T11:34:46;95273.00;;;29.38;36.96
10706;BME280;5404;42.656;23.336;2022-10-26T11:37:21;95258.97;;;28.42;39.22
10706;BME280;5404;42.656;23.336;2022-10-26T11:42:51;95255.19;;;29.02;38.89
10706;BME280;5404;42.656;23.336;2022-10-26T11:45:24;95267.59;;;28.34;40.21
10706;BME280;5404;42.656;23.336;2022-10-26T11:47:56;95253.53;;;27.05;43.71
10706;BME280;5404;42.656;23.336;2022-10-26T11:50:50;95273.53;;;27.83;41.24
10706;BME280;5404;42.656;23.336;2022-10-26T11:53:43;95270.66;;;28.64;39.26
10706;BME280;5404;42.656;23.336;2022-10-26T11:56:43;95260.91;;;29.32;36.15
10706;BME280;5404;42.656;23.336;2022-10-26T11:59:20;95255.75;;;29.41;35.03
10706;BME280;5404;42.656;23.336;2022-10-26T12:01:51;95261.44;;;29.06;35.15
10706;BME280;5404;42.656;23.336;2022-10-26T12:04:23;95261.41;;;28.02;36.83
10706;BME280;5404;42.656;23.336;2022-10-26T12:06:53;95251.53;;;26.99;38.95
10706;BME280;5404;42.656;23.336;2022-10-26T12:09:30;95250.19;;;25.31;43.72
10706;BME280;5404;42.656;23.336;2022-10-26T12:14:31;95254.69;;;23.88;50.72
10706;BME280;5404;42.656;23.336;2022-10-26T12:19:46;95253.91;;;23.35;52.63
10706;BME280;5404;42.656;23.336;2022-10-26T12:22:27;95253.53;;;22.72;56.68
10706;BME280;5404;42.656;23.336;2022-10-26T12:38:00;95249.09;;;22.64;54.52
10706;BME280;5404;42.656;23.336;2022-10-26T12:45:45;95246.66;;;22.78;54.15
10706;BME280;5404;42.656;23.336;2022-10-26T12:48:21;95259.13;;;23.02;55.09
10706;BME280;5404;42.656;23.336;2022-10-26T12:50:48;95241.41;;;23.11;52.53
10706;BME280;5404;42.656;23.336;2022-10-26T12:53:17;95249.03;;;23.25;52.11
10706;BME280;5404;42.656;23.336;2022-10-26T12:56:00;95252.84;;;23.21;52.00
10706;BME280;5404;42.656;23.336;2022-10-26T13:03:45;95250.72;;;22.88;50.94
10706;BME280;5404;42.656;23.336;2022-10-26T13:08:56;95240.50;;;23.27;50.67
10706;BME280;5404;42.656;23.336;2022-10-26T13:13:56;95263.25;;;23.38;46.35
10706;BME280;5404;42.656;23.336;2022-10-26T13:16:25;95260.56;;;23.64;45.50
10706;BME280;5404;42.656;23.336;2022-10-26T13:18:51;95260.25;;;23.95;43.81
10706;BME280;5404;42.656;23.336;2022-10-26T13:21:19;95257.00;;;23.86;41.93
10706;BME280;5404;42.656;23.336;2022-10-26T13:26:21;95266.00;;;23.64;40.53
10706;BME280;5404;42.656;23.336;2022-10-26T13:28:59;95248.66;;;23.75;40.34
10706;BME280;5404;42.656;23.336;2022-10-26T13:34:03;95264.38;;;23.59;39.68
10706;BME280;5404;42.656;23.336;2022-10-26T13:36:36;95268.47;;;23.27;39.84
10706;BME280;5404;42.656;23.336;2022-10-26T13:41:38;95264.41;;;23.85;38.49
10706;BME280;5404;42.656;23.336;2022-10-26T13:44:11;95275.28;;;24.11;38.11
10706;BME280;5404;42.656;23.336;2022-10-26T13:46:40;95255.59;;;24.22;37.28
10706;BME280;5404;42.656;23.336;2022-10-26T13:49:23;95275.41;;;24.22;37.04
10706;BME280;5404;42.656;23.336;2022-10-26T13:51:52;95266.59;;;24.02;37.56
10706;BME280;5404;42.656;23.336;2022-10-26T13:54:41;95265.53;;;23.84;36.53
10706;BME280;5404;42.656;23.336;2022-10-26T13:57:28;95281.94;;;23.65;36.35
10706;BME280;5404;42.656;23.336;2022-10-26T13:59:58;95265.00;;;23.49;36.71
10706;BME280;5404;42.656;23.336;2022-10-26T14:02:27;95281.47;;;23.60;36.39
10706;BME280;5404;42.656;23.336;2022-10-26T14:05:00;95279.72;;;23.71;36.59
10706;BME280;5404;42.656;23.336;2022-10-26T14:07:40;95291.44;;;23.75;36.64
10706;BME280;5404;42.656;23.336;2022-10-26T14:10:19;95281.00;;;23.77;36.29
10706;BME280;5404;42.656;23.336;2022-10-26T14:12:47;95270.22;;;23.87;36.60
10706;BME280;5404;42.656;23.336;2022-10-26T14:15:13;95288.34;;;23.99;36.12
10706;BME280;5404;42.656;23.336;2022-10-26T14:17:39;95277.19;;;23.59;36.99
10706;BME280;5404;42.656;23.336;2022-10-26T14:20:05;95271.47;;;23.41;37.65
10706;BME280;5404;42.656;23.336;2022-10-26T14:22:32;95275.41;;;23.44;38.02
10706;BME280;5404;42.656;23.336;2022-10-26T14:24:59;95277.63;;;23.38;38.56
10706;BME280;5404;42.656;23.336;2022-10-26T14:27:30;95280.81;;;23.21;38.46
10706;BME280;5404;42.656;23.336;2022-10-26T14:29:56;95297.84;;;23.18;39.19
10706;BME280;5404;42.656;23.336;2022-10-26T14:32:26;95295.78;;;22.89;40.03
10706;BME280;5404;42.656;23.336;2022-10-26T14:34:53;95283.50;;;22.57;41.31
10706;BME280;5404;42.656;23.336;2022-10-26T14:37:35;95291.75;;;22.45;41.90
10706;BME280;5404;42.656;23.336;2022-10-26T14:40:03;95265.09;;;22.12;42.67
10706;BME280;5404;42.656;23.336;2022-10-26T14:42:32;95293.19;;;22.20;44.59
10706;BME280;5404;42.656;23.336;2022-10-26T14:44:59;95285.88;;;22.05;44.63
10706;BME280;5404;42.656;23.336;2022-10-26T14:47:30;95296.84;;;21.92;45.76
10706;BME280;5404;42.656;23.336;2022-10-26T14:49:57;95300.53;;;21.84;45.86
10706;BME280;5404;42.656;23.336;2022-10-26T14:52:32;95286.13;;;21.49;47.87
10706;BME280;5404;42.656;23.336;2022-10-26T14:55:01;95291.91;;;21.32;48.18
10706;BME280;5404;42.656;23.336;2022-10-26T14:57:36;95311.72;;;21.21;50.32
10706;BME280;5404;42.656;23.336;2022-10-26T15:00:24;95312.59;;;21.09;51.43
10706;BME280;5404;42.656;23.336;2022-10-26T15:02:52;95309.44;;;20.79;53.18
10706;BME280;5404;42.656;23.336;2022-10-26T15:05:33;95308.38;;;20.68;54.89
10706;BME280;5404;42.656;23.336;2022-10-26T15:08:00;95313.50;;;20.58;57.13
10706;BME280;5404;42.656;23.336;2022-10-26T15:13:28;95314.84;;;20.24;63.75
10706;BME280;5404;42.656;23.336;2022-10-26T15:16:49;95326.34;;;20.09;66.82